Sunday, January 21, 2018, 3:35 PM EST
Back to Local

KGTB, Fort Drum / Wheeler-sack U. S. Army Airfield

Location: Fort Drum, NY, United States Lat: 44.05
Local Time: 3:35 PM EST (20:35 GMT) Lon: -75.733
Time Zone: US/Eastern Elev: 679 ft

Show me the last for .
Show Decoded

2018-01-21 14:56 METAR KGTB 211956Z COR 00000KT 10SM BKN095 05/M01 A3009 RMK AO2A SLPNO ALSTG
                 ESTMD T00451009 $ COR 2010 =
2018-01-21 13:56 METAR KGTB 211856Z 22006KT 10SM BKN095 05/M01 A3009 RMK AO2A SLPNO ALSTG ESTMD
                 T00481006 $ =
2018-01-21 12:56 METAR KGTB 211756Z 24005KT 10SM FEW120 04/00 A3010 RMK AO2A SLPNO ALSTG ESTMD
                 T00351005 10042 20003 $ =
2018-01-21 11:56 METAR KGTB 211656Z 24004KT 10SM SCT100 BKN130 03/00 A3011 RMK AO2A SLPNO ALSTG
                 ESTMD T00311005 $ =
2018-01-21 10:56 METAR KGTB 211556Z 21006KT 10SM FEW007 SCT100 BKN120 03/00 A3012 RMK AO2A SLPNO
                 ALSTG ESTMD T00271004 $ =
2018-01-21 09:56 METAR KGTB 211456Z 21007KT 8SM SCT007 BKN110 02/00 A3012 RMK AO2A SLPNO ALSTG
                 ESTMD T00151004 $ =
2018-01-21 09:36 METAR KGTB 211436Z 23005KT 8SM SCT006 BKN110 01/00 A3012 RMK AO2A SLPNO ALSTG
                 ESTMD $ =
2018-01-21 08:56 METAR KGTB 211356Z 24006KT 6SM BR FEW006 SCT120 01/00 A3012 RMK AO2A SLPNO ALSTG
                 ESTMD T00121004 $ =
2018-01-21 07:56 METAR KGTB 211256Z 22006KT 5SM BR FEW005 BKN130 00/M01 A3009 RMK AO2A SLPNO
                 ALSTG ESTMD T00031009 $ =
2018-01-21 06:56 METAR KGTB 211156Z COR 22007KT 6SM BR FEW005 SCT030 BKN130 00/M01 A3009 RMK AO2A
                 SLPNO ALSTG ESTMD 4/003 T00041008 10014 20003 $ COR 1205 =
2018-01-21 05:56 METAR KGTB 211056Z 23006KT 8SM SCT007 SCT100 BKN150 01/M01 A3007 RMK AO2A SLPNO
                 ALSTG ESTMD T00051008 $ =
2018-01-21 04:56 METAR KGTB 210956Z 23005KT 8SM SCT010 BKN100 01/M01 A3005 RMK AO2A SLPNO ALSTG
                 ESTMD T00051008 $ =
2018-01-21 03:56 METAR KGTB 210856Z 24007KT 10SM OVC031 01/00 A3004 RMK AO2A SLPNO ALSTG ESTMD
                 T00111005 $ =
2018-01-21 03:26 METAR KGTB 210826Z 26006KT 10SM OVC029 01/00 A3005 RMK AO2A CIG 028 RWY03 SLPNO
                 ALSTG ESTMD $ =
2018-01-21 02:56 METAR KGTB 210756Z 26005KT 10SM OVC032 01/M01 A3004 RMK AO2A SLPNO ALSTG ESTMD
                 T00101006 $ =
2018-01-21 01:56 METAR KGTB 210656Z 24007KT 10SM SCT033 OVC110 01/M01 A3001 RMK AO2A SLPNO ALSTG
                 ESTMD T00121006 $ =
2018-01-21 00:56 METAR KGTB 210556Z COR 27005KT 10SM OVC032 01/M01 A3000 RMK AO2A SLPNO ALSTG
                 ESTMD 4/004 T00141007 10025 20014 $ COR 0559 =
2018-01-20 23:56 METAR KGTB 210456Z 26008KT 10SM SCT028 OVC035 02/M01 A2998 RMK AO2A SLPNO ALSTG
                 ESTMD T00161008 400400016 $ =
2018-01-20 23:26 METAR KGTB 210426Z 26009KT 10SM BKN028 OVC036 02/M01 A2996 RMK AO2A CIG 028V036
                 BKN V SCT CIG 027 RWY03 SLPNO ALSTG ESTMD $ =
2018-01-20 22:56 METAR KGTB 210356Z 25007KT 10SM BKN036 BKN120 02/M01 A2996 RMK AO2A SLPNO ALSTG
                 ESTMD T00191010 $ =
2018-01-20 21:56 METAR KGTB 210256Z 25010G15KT 10SM BKN038 BKN120 02/M01 A2997 RMK AO2A SLPNO
                 ALSTG ESTMD T00221012 $ =
2018-01-20 20:56 METAR KGTB 210156Z 25009G18KT 10SM SCT100 BKN120 02/M01 A2995 RMK AO2A SLPNO
                 ALSTG ESTMD T00231013 $ =
2018-01-20 19:56 METAR KGTB 210056Z 25009G17KT 10SM SCT100 SCT130 02/M01 A2995 RMK AO2A SLPNO
                 ALSTG ESTMD T00241012 $ =
2018-01-20 18:56 METAR KGTB 202356Z 25010G19KT 10SM BKN110 02/M01 A2992 RMK AO2A SLPNO ALTSG
                 ESTMD T00221012 10039 20020 $ =
2018-01-20 17:56 METAR KGTB 202256Z 25012G18KT 10SM SCT140 02/M01 A2991 RMK AO2A SLPNO ALSTG
                 ESTMD T00201014 $ =
2018-01-20 16:56 METAR KGTB 202156Z 26011G20KT 10SM CLR 02/M01 A2988 RMK AO2A PK WND 24028/09
                 SLPNO ALSTG ESTMD T00241014 $ =
2018-01-20 15:56 METAR KGTB 202056Z 26017G24KT 10SM CLR 03/M01 A2985 RMK AO2A PK WND 25032/16
                 SLPNO ALSTG ESTMD T00331013 $ =

Support USWX by starting your Amazon purchase here.